< Typhoon 200502 2005 Season Typhoon 200504 >
Typhoon 200503 (SONCA)
General InformationTrack Information on Google MapsDetailed Wind InformationAccess Analytics MapList of All Images || NewsDisaster Info.WeblogTrackbackTyphoon FrontResourceGoogle EarthGE AnimationAtom FeedGeoJSON
Detalied Best Track (Time Zone = UTC)
Year Month Day Hour Lat. Long. Pressure (hPa) Wind (kt) Class Image Chart
2005 4 21 06 8.7 141.9 1004 0 2 Image Chart
2005 4 21 12 9.9 139.9 1006 0 2 Image Chart
2005 4 21 18 10.6 138.6 1004 0 2 Image Chart
2005 4 22 00 11.0 137.4 1004 0 2 Image Chart
2005 4 22 06 11.5 136.1 1004 0 2 Image Chart
2005 4 22 12 11.5 134.4 1002 0 2 Image Chart
2005 4 22 18 11.3 133.4 1002 0 2 Image Chart
2005 4 23 00 11.6 132.8 1000 35 3 Image Chart
2005 4 23 06 12.2 131.9 990 45 3 Image Chart
2005 4 23 12 12.6 131.5 975 60 4 Image Chart
2005 4 23 18 13.2 131.2 965 70 5 Image Chart
2005 4 24 00 13.5 130.8 955 75 5 Image Chart
2005 4 24 06 14.1 130.8 945 85 5 Image Chart
2005 4 24 12 14.5 130.8 935 90 5 Image Chart
2005 4 24 18 15.2 131.0 935 90 5 Image Chart
2005 4 25 00 16.0 131.2 935 90 5 Image Chart
2005 4 25 06 16.7 131.6 940 85 5 Image Chart
2005 4 25 12 17.5 132.3 940 85 5 Image Chart
2005 4 25 18 18.7 132.9 940 85 5 Image Chart
2005 4 26 00 20.1 134.0 940 85 5 Image Chart
2005 4 26 06 21.7 135.6 950 80 5 Image Chart
2005 4 26 12 23.5 138.1 960 75 5 Image Chart
2005 4 26 18 24.7 140.1 970 65 5 Image Chart
2005 4 26 21 25.2 141.4 975 60 4 Image Chart
2005 4 27 00 25.5 142.7 980 55 4 Image Chart
2005 4 27 03 26.2 144.0 985 50 4 Image Chart
2005 4 27 06 26.7 145.6 990 45 3 Image Chart
2005 4 27 12 27.7 148.7 996 0 6 Image Chart
2005 4 27 18 28.5 151.6 1000 0 6 Image Chart
2005 4 28 00 28.6 155.3 1004 0 6 Image Chart
2005 4 28 06 28.4 158.3 1006 0 6 Image Chart
2005 4 28 12 28.4 161.2 1006 0 6 Image Chart
2005 4 28 18 28.2 163.6 1006 0 6 Image Chart
2005 4 29 00 27.6 165.8 1008 0 6 Image Chart
2005 4 29 06 27.0 167.7 1008 0 6 Image Chart
Japan Meteorological Agency Best Track Data | Correction Date : 2005-12-19
< Typhoon 200502 2005 Season Typhoon 200504 >

Help